sensor_id;sensor_type;location;lat;lon;timestamp;pressure;altitude;pressure_sealevel;temperature;humidity
67840;BME280;54636;51.684;5.142;2023-07-13T00:00:23;101373.22;;;15.22;90.46
67840;BME280;54636;51.684;5.142;2023-07-13T00:02:48;101399.59;;;15.36;90.61
67840;BME280;54636;51.684;5.142;2023-07-13T00:05:13;101387.91;;;15.30;90.73
67840;BME280;54636;51.684;5.142;2023-07-13T00:07:39;101384.44;;;15.18;91.06
67840;BME280;54636;51.684;5.142;2023-07-13T00:10:05;101397.13;;;15.27;90.76
67840;BME280;54636;51.684;5.142;2023-07-13T00:12:33;101385.66;;;15.17;91.58
67840;BME280;54636;51.684;5.142;2023-07-13T00:15:02;101398.59;;;15.28;91.89
67840;BME280;54636;51.684;5.142;2023-07-13T00:17:28;101406.56;;;15.26;92.08
67840;BME280;54636;51.684;5.142;2023-07-13T00:19:55;101409.81;;;15.24;92.33
67840;BME280;54636;51.684;5.142;2023-07-13T00:22:21;101404.34;;;15.24;92.57
67840;BME280;54636;51.684;5.142;2023-07-13T00:24:47;101400.59;;;15.22;92.88
67840;BME280;54636;51.684;5.142;2023-07-13T00:27:12;101400.59;;;15.16;93.80
67840;BME280;54636;51.684;5.142;2023-07-13T00:29:41;101393.63;;;15.09;94.34
67840;BME280;54636;51.684;5.142;2023-07-13T00:32:07;101401.59;;;15.07;94.09
67840;BME280;54636;51.684;5.142;2023-07-13T00:34:34;101407.06;;;15.07;94.23
67840;BME280;54636;51.684;5.142;2023-07-13T00:37:00;101392.41;;;14.94;94.86
67840;BME280;54636;51.684;5.142;2023-07-13T00:39:25;101397.34;;;15.01;94.50
67840;BME280;54636;51.684;5.142;2023-07-13T00:41:51;101401.84;;;14.98;94.88
67840;BME280;54636;51.684;5.142;2023-07-13T00:44:19;101404.06;;;15.00;95.71
67840;BME280;54636;51.684;5.142;2023-07-13T00:46:45;101390.91;;;14.93;95.78
67840;BME280;54636;51.684;5.142;2023-07-13T00:49:14;101386.66;;;14.97;95.45
67840;BME280;54636;51.684;5.142;2023-07-13T00:51:49;101395.88;;;15.11;95.19
67840;BME280;54636;51.684;5.142;2023-07-13T00:54:18;101396.63;;;15.06;95.79
67840;BME280;54636;51.684;5.142;2023-07-13T00:56:47;101380.97;;;14.90;96.20
67840;BME280;54636;51.684;5.142;2023-07-13T00:59:15;101388.19;;;14.93;96.56
67840;BME280;54636;51.684;5.142;2023-07-13T01:01:44;101393.41;;;14.85;96.92
67840;BME280;54636;51.684;5.142;2023-07-13T01:04:10;101406.34;;;14.90;97.25
67840;BME280;54636;51.684;5.142;2023-07-13T01:06:37;101417.50;;;14.87;97.55
67840;BME280;54636;51.684;5.142;2023-07-13T01:09:04;101406.81;;;14.77;98.07
67840;BME280;54636;51.684;5.142;2023-07-13T01:11:29;101404.56;;;14.70;98.51
67840;BME280;54636;51.684;5.142;2023-07-13T01:13:55;101412.50;;;14.68;98.97
67840;BME280;54636;51.684;5.142;2023-07-13T01:16:29;101388.84;;;14.48;99.31
67840;BME280;54636;51.684;5.142;2023-07-13T01:18:55;101430.66;;;14.71;99.34
67840;BME280;54636;51.684;5.142;2023-07-13T01:21:23;101428.41;;;14.64;100.00
67840;BME280;54636;51.684;5.142;2023-07-13T01:23:49;101405.75;;;14.47;100.00
67840;BME280;54636;51.684;5.142;2023-07-13T01:26:14;101429.38;;;14.61;100.00
67840;BME280;54636;51.684;5.142;2023-07-13T01:28:40;101400.47;;;14.38;100.00
67840;BME280;54636;51.684;5.142;2023-07-13T01:31:05;101422.63;;;14.45;100.00
67840;BME280;54636;51.684;5.142;2023-07-13T01:33:31;101418.84;;;14.37;100.00
67840;BME280;54636;51.684;5.142;2023-07-13T01:35:56;101428.38;;;14.53;100.00
67840;BME280;54636;51.684;5.142;2023-07-13T01:38:24;101429.34;;;14.50;100.00
67840;BME280;54636;51.684;5.142;2023-07-13T01:40:51;101420.88;;;14.42;100.00
67840;BME280;54636;51.684;5.142;2023-07-13T01:43:17;101422.88;;;14.42;100.00
67840;BME280;54636;51.684;5.142;2023-07-13T01:45:43;101415.38;;;14.37;100.00
67840;BME280;54636;51.684;5.142;2023-07-13T01:48:09;101413.09;;;14.24;100.00
67840;BME280;54636;51.684;5.142;2023-07-13T01:50:35;101417.59;;;14.27;100.00
67840;BME280;54636;51.684;5.142;2023-07-13T01:53:01;101428.50;;;14.33;100.00
67840;BME280;54636;51.684;5.142;2023-07-13T01:55:27;101422.53;;;14.23;100.00
67840;BME280;54636;51.684;5.142;2023-07-13T01:57:52;101426.78;;;14.24;100.00
67840;BME280;54636;51.684;5.142;2023-07-13T02:00:18;101434.97;;;14.24;100.00
67840;BME280;54636;51.684;5.142;2023-07-13T02:02:44;101436.19;;;14.17;100.00
67840;BME280;54636;51.684;5.142;2023-07-13T02:05:10;101426.47;;;14.11;100.00
67840;BME280;54636;51.684;5.142;2023-07-13T02:07:36;101435.91;;;14.10;100.00
67840;BME280;54636;51.684;5.142;2023-07-13T02:10:02;101426.88;;;13.98;100.00
67840;BME280;54636;51.684;5.142;2023-07-13T02:12:27;101429.91;;;14.06;100.00
67840;BME280;54636;51.684;5.142;2023-07-13T02:14:53;101436.16;;;14.12;100.00
67840;BME280;54636;51.684;5.142;2023-07-13T02:17:18;101443.81;;;14.08;100.00
67840;BME280;54636;51.684;5.142;2023-07-13T02:19:43;101449.25;;;14.02;100.00
67840;BME280;54636;51.684;5.142;2023-07-13T02:22:09;101448.50;;;14.02;100.00
67840;BME280;54636;51.684;5.142;2023-07-13T02:24:34;101442.03;;;13.99;100.00
67840;BME280;54636;51.684;5.142;2023-07-13T02:27:00;101436.31;;;13.97;100.00
67840;BME280;54636;51.684;5.142;2023-07-13T02:29:25;101445.75;;;13.96;100.00
67840;BME280;54636;51.684;5.142;2023-07-13T02:31:51;101434.53;;;13.89;100.00
67840;BME280;54636;51.684;5.142;2023-07-13T02:34:16;101423.81;;;13.79;100.00
67840;BME280;54636;51.684;5.142;2023-07-13T02:36:41;101432.03;;;13.85;100.00
67840;BME280;54636;51.684;5.142;2023-07-13T02:39:07;101436.25;;;13.86;100.00
67840;BME280;54636;51.684;5.142;2023-07-13T02:41:32;101426.00;;;13.75;100.00
67840;BME280;54636;51.684;5.142;2023-07-13T02:43:58;101416.59;;;13.76;100.00
67840;BME280;54636;51.684;5.142;2023-07-13T02:46:30;101438.19;;;13.80;100.00
67840;BME280;54636;51.684;5.142;2023-07-13T02:48:55;101428.03;;;13.80;100.00
67840;BME280;54636;51.684;5.142;2023-07-13T02:51:20;101433.22;;;13.78;100.00
67840;BME280;54636;51.684;5.142;2023-07-13T02:53:46;101433.22;;;13.78;100.00
67840;BME280;54636;51.684;5.142;2023-07-13T02:56:11;101426.75;;;13.76;100.00
67840;BME280;54636;51.684;5.142;2023-07-13T02:58:37;101428.25;;;13.77;100.00
67840;BME280;54636;51.684;5.142;2023-07-13T03:01:07;101417.03;;;13.69;100.00
67840;BME280;54636;51.684;5.142;2023-07-13T03:03:33;101415.06;;;13.64;100.00
67840;BME280;54636;51.684;5.142;2023-07-13T03:06:00;101414.25;;;13.58;100.00
67840;BME280;54636;51.684;5.142;2023-07-13T03:08:27;101429.72;;;13.72;100.00
67840;BME280;54636;51.684;5.142;2023-07-13T03:11:04;101440.63;;;13.72;100.00
67840;BME280;54636;51.684;5.142;2023-07-13T03:13:30;101429.91;;;13.58;100.00
67840;BME280;54636;51.684;5.142;2023-07-13T03:15:55;101426.34;;;13.46;100.00
67840;BME280;54636;51.684;5.142;2023-07-13T03:18:21;101451.03;;;13.63;100.00
67840;BME280;54636;51.684;5.142;2023-07-13T03:20:46;101460.19;;;13.60;100.00
67840;BME280;54636;51.684;5.142;2023-07-13T03:23:11;101455.69;;;13.57;100.00
67840;BME280;54636;51.684;5.142;2023-07-13T03:25:37;101439.28;;;13.51;100.00
67840;BME280;54636;51.684;5.142;2023-07-13T03:28:06;101433.78;;;13.45;100.00
67840;BME280;54636;51.684;5.142;2023-07-13T03:30:31;101434.47;;;13.40;100.00
67840;BME280;54636;51.684;5.142;2023-07-13T03:32:56;101440.41;;;13.39;100.00
67840;BME280;54636;51.684;5.142;2023-07-13T03:35:22;101435.41;;;13.32;100.00
67840;BME280;54636;51.684;5.142;2023-07-13T03:37:47;101461.06;;;13.45;100.00
67840;BME280;54636;51.684;5.142;2023-07-13T03:40:13;101457.59;;;13.45;100.00
67840;BME280;54636;51.684;5.142;2023-07-13T03:42:38;101453.78;;;13.37;100.00
67840;BME280;54636;51.684;5.142;2023-07-13T03:45:04;101456.31;;;13.40;100.00
67840;BME280;54636;51.684;5.142;2023-07-13T03:47:30;101471.75;;;13.49;100.00
67840;BME280;54636;51.684;5.142;2023-07-13T03:49:55;101467.78;;;13.50;100.00
67840;BME280;54636;51.684;5.142;2023-07-13T03:52:21;101474.50;;;13.49;100.00
67840;BME280;54636;51.684;5.142;2023-07-13T03:54:46;101468.06;;;13.52;100.00
67840;BME280;54636;51.684;5.142;2023-07-13T03:57:12;101464.31;;;13.49;100.00
67840;BME280;54636;51.684;5.142;2023-07-13T03:59:37;101470.56;;;13.56;100.00
67840;BME280;54636;51.684;5.142;2023-07-13T04:02:03;101474.28;;;13.52;100.00
67840;BME280;54636;51.684;5.142;2023-07-13T04:04:29;101471.53;;;13.52;100.00
67840;BME280;54636;51.684;5.142;2023-07-13T04:06:56;101464.41;;;13.61;100.00
67840;BME280;54636;51.684;5.142;2023-07-13T04:09:23;101473.59;;;13.63;100.00
67840;BME280;54636;51.684;5.142;2023-07-13T04:11:49;101474.31;;;13.58;100.00
67840;BME280;54636;51.684;5.142;2023-07-13T04:14:14;101481.53;;;13.67;100.00
67840;BME280;54636;51.684;5.142;2023-07-13T04:16:39;101497.75;;;13.76;100.00
67840;BME280;54636;51.684;5.142;2023-07-13T04:19:05;101495.31;;;13.83;100.00
67840;BME280;54636;51.684;5.142;2023-07-13T04:21:31;101484.13;;;13.81;100.00
67840;BME280;54636;51.684;5.142;2023-07-13T04:23:57;101494.38;;;13.92;100.00
67840;BME280;54636;51.684;5.142;2023-07-13T04:26:22;101487.22;;;13.95;100.00
67840;BME280;54636;51.684;5.142;2023-07-13T04:28:49;101463.56;;;13.86;100.00
67840;BME280;54636;51.684;5.142;2023-07-13T04:31:15;101488.06;;;14.12;100.00
67840;BME280;54636;51.684;5.142;2023-07-13T04:33:40;101490.84;;;14.23;100.00
67840;BME280;54636;51.684;5.142;2023-07-13T04:36:06;101494.38;;;14.35;100.00
67840;BME280;54636;51.684;5.142;2023-07-13T04:38:32;101502.41;;;14.49;100.00
67840;BME280;54636;51.684;5.142;2023-07-13T04:41:04;101503.66;;;14.54;100.00
67840;BME280;54636;51.684;5.142;2023-07-13T04:43:32;101512.69;;;14.71;100.00
67840;BME280;54636;51.684;5.142;2023-07-13T04:46:03;101513.72;;;14.79;100.00
67840;BME280;54636;51.684;5.142;2023-07-13T04:48:28;101501.28;;;14.78;100.00
67840;BME280;54636;51.684;5.142;2023-07-13T04:50:55;101506.03;;;14.89;100.00
67840;BME280;54636;51.684;5.142;2023-07-13T04:53:22;101511.75;;;15.02;100.00
67840;BME280;54636;51.684;5.142;2023-07-13T04:55:47;101513.78;;;15.13;100.00
67840;BME280;54636;51.684;5.142;2023-07-13T04:58:13;101502.59;;;15.16;100.00
67840;BME280;54636;51.684;5.142;2023-07-13T05:00:38;101512.56;;;15.36;100.00
67840;BME280;54636;51.684;5.142;2023-07-13T05:03:04;101500.38;;;15.32;100.00
67840;BME280;54636;51.684;5.142;2023-07-13T05:05:30;101510.84;;;15.39;100.00
67840;BME280;54636;51.684;5.142;2023-07-13T05:07:55;101499.88;;;15.39;100.00
67840;BME280;54636;51.684;5.142;2023-07-13T05:10:21;101529.25;;;15.61;100.00
67840;BME280;54636;51.684;5.142;2023-07-13T05:12:47;101520.56;;;15.68;100.00
67840;BME280;54636;51.684;5.142;2023-07-13T05:15:12;101517.81;;;15.79;100.00
67840;BME280;54636;51.684;5.142;2023-07-13T05:17:38;101537.72;;;16.02;100.00
67840;BME280;54636;51.684;5.142;2023-07-13T05:20:05;101545.16;;;16.12;100.00
67840;BME280;54636;51.684;5.142;2023-07-13T05:22:31;101534.41;;;16.26;100.00
67840;BME280;54636;51.684;5.142;2023-07-13T05:24:56;101526.88;;;16.43;100.00
67840;BME280;54636;51.684;5.142;2023-07-13T05:27:22;101534.28;;;16.70;100.00
67840;BME280;54636;51.684;5.142;2023-07-13T05:29:48;101537.03;;;16.70;100.00
67840;BME280;54636;51.684;5.142;2023-07-13T05:32:14;101537.75;;;16.76;100.00
67840;BME280;54636;51.684;5.142;2023-07-13T05:34:39;101552.13;;;16.94;100.00
67840;BME280;54636;51.684;5.142;2023-07-13T05:37:05;101532.47;;;16.90;100.00
67840;BME280;54636;51.684;5.142;2023-07-13T05:39:30;101540.94;;;16.86;100.00
67840;BME280;54636;51.684;5.142;2023-07-13T05:41:55;101556.66;;;16.86;100.00
67840;BME280;54636;51.684;5.142;2023-07-13T05:44:21;101544.50;;;16.70;100.00
67840;BME280;54636;51.684;5.142;2023-07-13T05:46:46;101556.22;;;16.76;100.00
67840;BME280;54636;51.684;5.142;2023-07-13T05:49:12;101550.50;;;16.68;100.00
67840;BME280;54636;51.684;5.142;2023-07-13T05:51:37;101542.97;;;16.80;100.00
67840;BME280;54636;51.684;5.142;2023-07-13T05:54:02;101551.13;;;16.91;100.00
67840;BME280;54636;51.684;5.142;2023-07-13T05:56:28;101555.28;;;17.09;100.00
67840;BME280;54636;51.684;5.142;2023-07-13T05:58:53;101527.75;;;16.79;100.00
67840;BME280;54636;51.684;5.142;2023-07-13T06:01:19;101551.66;;;16.90;100.00
67840;BME280;54636;51.684;5.142;2023-07-13T06:03:46;101557.41;;;16.86;100.00
67840;BME280;54636;51.684;5.142;2023-07-13T06:06:12;101564.59;;;16.95;100.00
67840;BME280;54636;51.684;5.142;2023-07-13T06:08:38;101578.06;;;16.93;100.00
67840;BME280;54636;51.684;5.142;2023-07-13T06:13:29;101582.78;;;16.98;100.00
67840;BME280;54636;51.684;5.142;2023-07-13T06:15:54;101577.78;;;17.02;100.00
67840;BME280;54636;51.684;5.142;2023-07-13T06:18:19;101592.44;;;17.16;100.00
67840;BME280;54636;51.684;5.142;2023-07-13T06:20:45;101591.84;;;17.28;100.00
67840;BME280;54636;51.684;5.142;2023-07-13T06:23:10;101593.00;;;17.44;100.00
67840;BME280;54636;51.684;5.142;2023-07-13T06:25:35;101582.31;;;17.40;100.00
67840;BME280;54636;51.684;5.142;2023-07-13T06:28:01;101594.06;;;17.71;100.00
67840;BME280;54636;51.684;5.142;2023-07-13T06:30:27;101589.44;;;17.90;98.85
67840;BME280;54636;51.684;5.142;2023-07-13T06:32:53;101594.78;;;18.07;97.50
67840;BME280;54636;51.684;5.142;2023-07-13T06:35:18;101590.38;;;18.23;96.91
67840;BME280;54636;51.684;5.142;2023-07-13T06:37:44;101599.25;;;18.34;96.78
67840;BME280;54636;51.684;5.142;2023-07-13T06:40:09;101598.78;;;18.30;96.00
67840;BME280;54636;51.684;5.142;2023-07-13T06:42:35;101604.56;;;18.27;96.13
67840;BME280;54636;51.684;5.142;2023-07-13T06:45:01;101605.59;;;18.24;96.97
67840;BME280;54636;51.684;5.142;2023-07-13T06:47:26;101609.56;;;18.28;95.68
67840;BME280;54636;51.684;5.142;2023-07-13T06:49:52;101615.13;;;18.47;95.70
67840;BME280;54636;51.684;5.142;2023-07-13T06:52:17;101610.03;;;18.81;94.25
67840;BME280;54636;51.684;5.142;2023-07-13T06:54:43;101606.97;;;18.85;92.88
67840;BME280;54636;51.684;5.142;2023-07-13T06:57:08;101625.63;;;18.92;92.31
67840;BME280;54636;51.684;5.142;2023-07-13T06:59:34;101619.53;;;18.99;92.56
67840;BME280;54636;51.684;5.142;2023-07-13T07:01:59;101622.06;;;19.53;90.90
67840;BME280;54636;51.684;5.142;2023-07-13T07:04:25;101616.22;;;20.34;86.51
67840;BME280;54636;51.684;5.142;2023-07-13T07:06:50;101620.81;;;21.18;81.92
67840;BME280;54636;51.684;5.142;2023-07-13T07:09:15;101613.34;;;21.60;78.64
67840;BME280;54636;51.684;5.142;2023-07-13T07:11:42;101618.25;;;22.45;75.90
67840;BME280;54636;51.684;5.142;2023-07-13T07:14:07;101619.53;;;22.73;73.21
67840;BME280;54636;51.684;5.142;2023-07-13T07:16:33;101618.59;;;23.14;70.26
67840;BME280;54636;51.684;5.142;2023-07-13T07:18:58;101583.31;;;23.45;68.82
67840;BME280;54636;51.684;5.142;2023-07-13T07:21:24;101595.97;;;23.69;65.57
67840;BME280;54636;51.684;5.142;2023-07-13T07:23:49;101620.75;;;23.74;65.07
67840;BME280;54636;51.684;5.142;2023-07-13T07:26:15;101605.38;;;22.91;67.36
67840;BME280;54636;51.684;5.142;2023-07-13T07:28:40;101614.94;;;22.18;70.36
67840;BME280;54636;51.684;5.142;2023-07-13T07:31:05;101619.50;;;21.66;71.89
67840;BME280;54636;51.684;5.142;2023-07-13T07:33:32;101594.94;;;21.63;72.29
67840;BME280;54636;51.684;5.142;2023-07-13T07:35:58;101617.06;;;22.33;70.61
67840;BME280;54636;51.684;5.142;2023-07-13T07:38:23;101625.59;;;22.71;68.54
67840;BME280;54636;51.684;5.142;2023-07-13T07:40:48;101627.84;;;22.44;69.59
67840;BME280;54636;51.684;5.142;2023-07-13T07:43:14;101605.84;;;22.10;69.83
67840;BME280;54636;51.684;5.142;2023-07-13T07:45:40;101624.47;;;21.89;70.42
67840;BME280;54636;51.684;5.142;2023-07-13T07:48:06;101631.28;;;21.67;72.16
67840;BME280;54636;51.684;5.142;2023-07-13T07:50:32;101629.53;;;21.56;73.48
67840;BME280;54636;51.684;5.142;2023-07-13T07:52:58;101633.22;;;21.38;73.03
67840;BME280;54636;51.684;5.142;2023-07-13T07:55:25;101628.81;;;21.22;73.61
67840;BME280;54636;51.684;5.142;2023-07-13T07:57:54;101635.19;;;21.51;73.94
67840;BME280;54636;51.684;5.142;2023-07-13T08:00:19;101622.03;;;21.64;71.94
67840;BME280;54636;51.684;5.142;2023-07-13T08:02:45;101632.94;;;22.04;71.91
67840;BME280;54636;51.684;5.142;2023-07-13T08:05:11;101625.19;;;22.02;69.25
67840;BME280;54636;51.684;5.142;2023-07-13T08:07:37;101610.25;;;21.85;70.02
67840;BME280;54636;51.684;5.142;2023-07-13T08:10:06;101641.41;;;21.85;68.84
67840;BME280;54636;51.684;5.142;2023-07-13T08:12:35;101630.09;;;21.76;69.97
67840;BME280;54636;51.684;5.142;2023-07-13T08:15:01;101623.81;;;21.75;69.80
67840;BME280;54636;51.684;5.142;2023-07-13T08:17:27;101634.53;;;21.99;69.51
67840;BME280;54636;51.684;5.142;2023-07-13T08:19:53;101618.78;;;22.15;70.18
67840;BME280;54636;51.684;5.142;2023-07-13T08:22:18;101624.09;;;22.34;67.29
67840;BME280;54636;51.684;5.142;2023-07-13T08:24:44;101632.34;;;22.55;66.50
67840;BME280;54636;51.684;5.142;2023-07-13T08:27:13;101631.16;;;22.71;65.36
67840;BME280;54636;51.684;5.142;2023-07-13T08:29:39;101631.34;;;22.73;65.62
67840;BME280;54636;51.684;5.142;2023-07-13T08:32:06;101626.59;;;22.53;64.13
67840;BME280;54636;51.684;5.142;2023-07-13T08:34:34;101627.84;;;22.44;64.64
67840;BME280;54636;51.684;5.142;2023-07-13T08:37:00;101626.72;;;22.40;66.07
67840;BME280;54636;51.684;5.142;2023-07-13T08:39:25;101621.56;;;22.44;65.00
67840;BME280;54636;51.684;5.142;2023-07-13T08:41:57;101623.16;;;22.31;63.90
67840;BME280;54636;51.684;5.142;2023-07-13T08:44:59;101623.84;;;22.24;64.00
67840;BME280;54636;51.684;5.142;2023-07-13T08:47:32;101624.13;;;22.13;64.55
67840;BME280;54636;51.684;5.142;2023-07-13T08:49:59;101623.34;;;22.05;64.66
67840;BME280;54636;51.684;5.142;2023-07-13T08:52:36;101625.19;;;22.02;64.67
67840;BME280;54636;51.684;5.142;2023-07-13T08:55:21;101620.69;;;21.99;64.77
67840;BME280;54636;51.684;5.142;2023-07-13T08:58:01;101616.34;;;22.04;65.32
67840;BME280;54636;51.684;5.142;2023-07-13T09:00:37;101625.53;;;22.27;66.11
67840;BME280;54636;51.684;5.142;2023-07-13T09:03:16;101602.50;;;22.32;63.03
67840;BME280;54636;51.684;5.142;2023-07-13T09:05:49;101620.88;;;22.22;62.41
67840;BME280;54636;51.684;5.142;2023-07-13T09:11:05;101612.13;;;22.11;64.62
67840;BME280;54636;51.684;5.142;2023-07-13T09:13:51;101607.72;;;22.44;63.54
67840;BME280;54636;51.684;5.142;2023-07-13T09:16:23;101623.09;;;22.88;61.38
67840;BME280;54636;51.684;5.142;2023-07-13T09:18:52;101619.47;;;22.65;60.75
67840;BME280;54636;51.684;5.142;2023-07-13T09:21:25;101612.03;;;22.24;64.05
67840;BME280;54636;51.684;5.142;2023-07-13T09:23:54;101619.50;;;21.87;66.24
67840;BME280;54636;51.684;5.142;2023-07-13T09:26:23;101634.88;;;21.75;67.35
67840;BME280;54636;51.684;5.142;2023-07-13T09:28:59;101620.50;;;21.56;67.39
67840;BME280;54636;51.684;5.142;2023-07-13T09:31:33;101627.22;;;21.47;68.48
67840;BME280;54636;51.684;5.142;2023-07-13T09:33:59;101621.91;;;21.49;68.35
67840;BME280;54636;51.684;5.142;2023-07-13T09:36:30;101626.84;;;21.85;67.84
67840;BME280;54636;51.684;5.142;2023-07-13T09:39:15;101620.25;;;22.09;64.71
67840;BME280;54636;51.684;5.142;2023-07-13T09:42:12;101628.34;;;22.35;64.51
67840;BME280;54636;51.684;5.142;2023-07-13T09:49:54;101620.84;;;22.79;62.17
67840;BME280;54636;51.684;5.142;2023-07-13T09:52:20;101604.16;;;23.08;58.04
67840;BME280;54636;51.684;5.142;2023-07-13T09:54:50;101633.13;;;23.65;57.51
67840;BME280;54636;51.684;5.142;2023-07-13T09:57:16;101630.91;;;23.87;57.23
67840;BME280;54636;51.684;5.142;2023-07-13T09:59:47;101633.13;;;23.81;56.40
67840;BME280;54636;51.684;5.142;2023-07-13T10:07:28;101654.91;;;23.54;58.13
67840;BME280;54636;51.684;5.142;2023-07-13T10:09:55;101612.88;;;23.19;56.94
67840;BME280;54636;51.684;5.142;2023-07-13T10:12:22;101632.78;;;23.10;56.29
67840;BME280;54636;51.684;5.142;2023-07-13T10:14:51;101655.44;;;23.37;56.41
67840;BME280;54636;51.684;5.142;2023-07-13T10:17:19;101644.59;;;22.67;57.66
67840;BME280;54636;51.684;5.142;2023-07-13T10:19:47;101652.72;;;22.65;57.30
67840;BME280;54636;51.684;5.142;2023-07-13T10:22:24;101632.66;;;22.44;57.66
67840;BME280;54636;51.684;5.142;2023-07-13T10:24:53;101654.94;;;22.66;58.42
67840;BME280;54636;51.684;5.142;2023-07-13T10:27:25;101663.88;;;22.80;57.98
67840;BME280;54636;51.684;5.142;2023-07-13T10:32:29;101670.78;;;22.09;65.55
67840;BME280;54636;51.684;5.142;2023-07-13T10:34:55;101669.53;;;21.76;68.51
67840;BME280;54636;51.684;5.142;2023-07-13T10:37:26;101655.00;;;21.42;71.03
67840;BME280;54636;51.684;5.142;2023-07-13T10:39:55;101658.44;;;21.55;73.86
67840;BME280;54636;51.684;5.142;2023-07-13T10:42:30;101667.63;;;22.05;73.99
67840;BME280;54636;51.684;5.142;2023-07-13T10:44:58;101667.69;;;22.41;73.55
67840;BME280;54636;51.684;5.142;2023-07-13T10:47:24;101656.06;;;22.43;66.12
67840;BME280;54636;51.684;5.142;2023-07-13T10:49:53;101660.59;;;22.04;67.45
67840;BME280;54636;51.684;5.142;2023-07-13T10:55:03;101690.97;;;21.62;71.71
67840;BME280;54636;51.684;5.142;2023-07-13T10:57:29;101695.94;;;21.43;73.30
67840;BME280;54636;51.684;5.142;2023-07-13T11:02:30;101691.91;;;21.31;72.21
67840;BME280;54636;51.684;5.142;2023-07-13T11:04:56;101697.47;;;21.52;71.01
67840;BME280;54636;51.684;5.142;2023-07-13T11:07:26;101704.69;;;21.89;69.86
67840;BME280;54636;51.684;5.142;2023-07-13T11:09:55;101700.50;;;21.95;67.92
67840;BME280;54636;51.684;5.142;2023-07-13T11:19:53;101686.81;;;22.88;61.11
67840;BME280;54636;51.684;5.142;2023-07-13T11:22:44;101683.38;;;23.03;61.77
67840;BME280;54636;51.684;5.142;2023-07-13T11:25:29;101694.50;;;23.11;59.49
67840;BME280;54636;51.684;5.142;2023-07-13T11:28:17;101691.09;;;22.97;59.33
67840;BME280;54636;51.684;5.142;2023-07-13T11:33:17;101687.47;;;23.10;54.91
67840;BME280;54636;51.684;5.142;2023-07-13T11:35:49;101685.44;;;23.10;54.65
67840;BME280;54636;51.684;5.142;2023-07-13T11:38:19;101669.97;;;23.22;56.81
67840;BME280;54636;51.684;5.142;2023-07-13T11:40:46;101675.59;;;23.53;55.48
67840;BME280;54636;51.684;5.142;2023-07-13T11:43:14;101707.69;;;23.92;56.05
67840;BME280;54636;51.684;5.142;2023-07-13T11:45:41;101691.00;;;23.77;51.38
67840;BME280;54636;51.684;5.142;2023-07-13T11:48:27;101693.50;;;23.37;53.45
67840;BME280;54636;51.684;5.142;2023-07-13T11:50:57;101674.06;;;23.29;53.83
67840;BME280;54636;51.684;5.142;2023-07-13T11:53:28;101690.00;;;23.51;51.29
67840;BME280;54636;51.684;5.142;2023-07-13T11:55:55;101694.13;;;23.58;50.31
67840;BME280;54636;51.684;5.142;2023-07-13T11:58:24;101687.78;;;23.50;49.94
67840;BME280;54636;51.684;5.142;2023-07-13T12:00:53;101677.84;;;23.62;50.41
67840;BME280;54636;51.684;5.142;2023-07-13T12:03:22;101660.66;;;23.56;49.90
67840;BME280;54636;51.684;5.142;2023-07-13T12:06:21;101689.34;;;23.74;50.63
67840;BME280;54636;51.684;5.142;2023-07-13T12:08:48;101688.94;;;23.62;48.95
67840;BME280;54636;51.684;5.142;2023-07-13T12:11:17;101691.59;;;23.90;50.65
67840;BME280;54636;51.684;5.142;2023-07-13T12:13:43;101692.13;;;24.19;49.98
67840;BME280;54636;51.684;5.142;2023-07-13T12:16:29;101699.72;;;24.19;48.98
67840;BME280;54636;51.684;5.142;2023-07-13T12:18:56;101679.03;;;24.05;48.51
67840;BME280;54636;51.684;5.142;2023-07-13T12:21:33;101693.25;;;23.93;47.63
67840;BME280;54636;51.684;5.142;2023-07-13T12:24:00;101681.94;;;23.69;46.31
67840;BME280;54636;51.684;5.142;2023-07-13T12:26:28;101690.47;;;23.78;48.11
67840;BME280;54636;51.684;5.142;2023-07-13T12:28:55;101687.16;;;23.95;47.46
67840;BME280;54636;51.684;5.142;2023-07-13T12:34:07;101681.22;;;24.37;46.34
67840;BME280;54636;51.684;5.142;2023-07-13T12:36:36;101700.44;;;24.65;47.69
67840;BME280;54636;51.684;5.142;2023-07-13T12:39:13;101699.59;;;24.95;47.39
67840;BME280;54636;51.684;5.142;2023-07-13T12:41:39;101685.34;;;25.06;44.27
67840;BME280;54636;51.684;5.142;2023-07-13T12:44:10;101685.47;;;25.16;44.91
67840;BME280;54636;51.684;5.142;2023-07-13T12:46:37;101702.72;;;25.14;44.13
67840;BME280;54636;51.684;5.142;2023-07-13T12:49:06;101705.34;;;25.05;44.14
67840;BME280;54636;51.684;5.142;2023-07-13T12:51:32;101688.50;;;25.03;44.25
67840;BME280;54636;51.684;5.142;2023-07-13T12:54:18;101689.38;;;25.13;43.59
67840;BME280;54636;51.684;5.142;2023-07-13T12:56:45;101693.06;;;25.23;42.78
67840;BME280;54636;51.684;5.142;2023-07-13T12:59:18;101694.97;;;25.05;44.57
67840;BME280;54636;51.684;5.142;2023-07-13T13:01:44;101693.34;;;24.87;44.52
67840;BME280;54636;51.684;5.142;2023-07-13T13:04:11;101707.25;;;24.72;44.66
67840;BME280;54636;51.684;5.142;2023-07-13T13:06:38;101694.00;;;24.47;43.49
67840;BME280;54636;51.684;5.142;2023-07-13T13:09:11;101702.53;;;24.42;44.58
67840;BME280;54636;51.684;5.142;2023-07-13T13:11:37;101704.00;;;24.43;43.47
67840;BME280;54636;51.684;5.142;2023-07-13T13:14:02;101705.28;;;24.19;45.30
67840;BME280;54636;51.684;5.142;2023-07-13T13:16:42;101707.31;;;24.11;44.91
67840;BME280;54636;51.684;5.142;2023-07-13T13:19:15;101718.06;;;23.99;45.55
67840;BME280;54636;51.684;5.142;2023-07-13T13:21:43;101711.94;;;23.85;46.44
67840;BME280;54636;51.684;5.142;2023-07-13T13:24:17;101719.69;;;23.87;46.37